createdAt,value
2019-05-23T00:00:37.863Z,17.10
2019-05-23T00:03:08.574Z,17.10
2019-05-23T00:05:41.429Z,17.10
2019-05-23T00:08:14.222Z,17.10
2019-05-23T00:10:53.310Z,17.10
2019-05-23T00:13:41.887Z,17.10
2019-05-23T00:16:12.295Z,17.00
2019-05-23T00:18:41.887Z,17.10
2019-05-23T00:21:11.793Z,17.10
2019-05-23T00:23:41.259Z,17.00
2019-05-23T00:26:11.709Z,17.10
2019-05-23T00:28:42.145Z,17.10
2019-05-23T00:31:24.403Z,17.00
2019-05-23T00:33:53.931Z,17.00
2019-05-23T00:36:26.120Z,17.00
2019-05-23T00:38:56.675Z,17.00
2019-05-23T00:41:26.063Z,17.00
2019-05-23T00:43:56.195Z,17.00
2019-05-23T00:46:26.254Z,17.00
2019-05-23T00:48:56.618Z,17.00
2019-05-23T00:51:26.867Z,16.90
2019-05-23T00:53:57.298Z,17.00
2019-05-23T00:56:28.637Z,16.90
2019-05-23T00:58:58.195Z,16.90
2019-05-23T01:01:28.190Z,16.90
2019-05-23T01:03:58.811Z,16.90
2019-05-23T01:06:28.325Z,16.90
2019-05-23T01:08:58.347Z,16.90
2019-05-23T01:11:28.389Z,16.90
2019-05-23T01:13:59.566Z,16.90
2019-05-23T01:16:31.451Z,16.90
2019-05-23T01:19:01.214Z,16.90
2019-05-23T01:21:47.553Z,16.90
2019-05-23T01:24:29.791Z,16.90
2019-05-23T01:27:00.087Z,16.90
2019-05-23T01:29:37.644Z,16.90
2019-05-23T01:32:12.565Z,16.80
2019-05-23T01:34:43.430Z,16.80
2019-05-23T01:37:13.790Z,16.80
2019-05-23T01:39:43.175Z,16.80
2019-05-23T01:42:13.354Z,16.80
2019-05-23T01:44:42.863Z,16.80
2019-05-23T01:47:13.042Z,16.80
2019-05-23T01:49:42.808Z,16.80
2019-05-23T01:52:13.842Z,16.80
2019-05-23T01:54:43.337Z,16.80
2019-05-23T01:57:12.863Z,16.70
2019-05-23T01:59:42.859Z,16.70
2019-05-23T02:02:13.829Z,16.70
2019-05-23T02:04:43.320Z,16.70
2019-05-23T02:07:13.675Z,16.60
2019-05-23T02:09:43.219Z,16.60
2019-05-23T02:12:13.989Z,16.60
2019-05-23T02:14:46.394Z,16.60
2019-05-23T02:17:17.164Z,16.50
2019-05-23T02:19:48.000Z,16.50
2019-05-23T02:22:17.586Z,16.50
2019-05-23T02:24:48.230Z,16.40
2019-05-23T02:27:18.108Z,16.40
2019-05-23T02:29:47.595Z,16.40
2019-05-23T02:32:18.033Z,16.40
2019-05-23T02:34:48.261Z,16.30
2019-05-23T02:37:35.142Z,16.30
2019-05-23T02:40:18.500Z,16.30
2019-05-23T02:42:54.707Z,16.30
2019-05-23T02:45:30.899Z,16.20
2019-05-23T02:48:01.395Z,16.20
2019-05-23T02:50:43.389Z,16.20
2019-05-23T02:53:16.209Z,16.20
2019-05-23T02:55:47.840Z,16.20
2019-05-23T02:58:30.427Z,16.20
2019-05-23T03:01:15.384Z,16.10
2019-05-23T03:03:46.641Z,16.10
2019-05-23T03:09:11.859Z,16.10
2019-05-23T03:11:45.708Z,16.10
2019-05-23T03:14:18.963Z,16.10
2019-05-23T03:16:52.152Z,16.00
2019-05-23T03:19:29.105Z,16.00
2019-05-23T03:22:18.856Z,16.00
2019-05-23T03:24:49.213Z,16.00
2019-05-23T03:27:20.367Z,16.00
2019-05-23T03:29:50.903Z,16.00
2019-05-23T03:32:38.327Z,16.00
2019-05-23T03:35:11.692Z,16.00
2019-05-23T03:37:42.130Z,16.00
2019-05-23T03:40:12.911Z,16.00
2019-05-23T03:42:42.547Z,16.00
2019-05-23T03:45:16.922Z,16.00
2019-05-23T03:48:07.985Z,16.00
2019-05-23T03:50:39.328Z,16.00
2019-05-23T03:53:09.041Z,16.00
2019-05-23T03:55:42.129Z,15.90
2019-05-23T03:58:12.798Z,16.00
2019-05-23T04:00:49.653Z,16.00
2019-05-23T04:03:20.676Z,15.90
2019-05-23T04:05:51.130Z,15.90
2019-05-23T04:08:20.692Z,15.90
2019-05-23T04:10:51.858Z,16.00
2019-05-23T04:13:22.375Z,16.00
2019-05-23T04:15:51.808Z,16.00
2019-05-23T04:18:21.996Z,16.00
2019-05-23T04:20:53.472Z,16.00
2019-05-23T04:23:23.231Z,16.10
2019-05-23T04:25:52.706Z,16.30
2019-05-23T04:28:22.912Z,16.40
2019-05-23T04:30:52.453Z,16.60
2019-05-23T04:33:22.404Z,16.80
2019-05-23T04:35:51.960Z,16.90
2019-05-23T04:38:21.450Z,16.90
2019-05-23T04:40:51.311Z,17.00
2019-05-23T04:43:21.170Z,17.10
2019-05-23T04:45:50.751Z,17.10
2019-05-23T04:48:20.819Z,17.10
2019-05-23T04:50:51.185Z,16.90
2019-05-23T04:53:21.157Z,16.80
2019-05-23T04:55:50.531Z,16.70
2019-05-23T04:58:20.223Z,16.60
2019-05-23T05:00:50.052Z,16.50
2019-05-23T05:03:20.345Z,16.50
2019-05-23T05:05:50.553Z,16.40
2019-05-23T05:08:20.427Z,16.50
2019-05-23T05:10:49.950Z,16.50
2019-05-23T05:13:19.996Z,16.50
2019-05-23T05:15:50.045Z,16.50
2019-05-23T05:18:21.619Z,16.30
2019-05-23T05:20:52.261Z,16.20
2019-05-23T05:23:23.234Z,16.10
2019-05-23T05:25:52.672Z,16.20
2019-05-23T05:28:22.080Z,16.20
2019-05-23T05:30:51.951Z,16.30
2019-05-23T05:33:21.808Z,16.30
2019-05-23T05:35:52.466Z,16.40
2019-05-23T05:38:22.098Z,16.40
2019-05-23T05:40:52.686Z,16.40
2019-05-23T05:43:22.210Z,16.50
2019-05-23T05:45:52.884Z,16.50
2019-05-23T05:48:24.104Z,16.50
2019-05-23T05:50:53.884Z,16.50
2019-05-23T05:53:23.445Z,16.50
2019-05-23T05:55:52.892Z,16.50
2019-05-23T05:58:22.283Z,16.60
2019-05-23T06:01:02.994Z,16.70
2019-05-23T06:03:33.746Z,16.70
2019-05-23T06:06:34.603Z,16.70
2019-05-23T06:09:13.061Z,16.70
2019-05-23T06:11:42.974Z,16.80
2019-05-23T06:14:12.729Z,16.80
2019-05-23T06:16:44.921Z,16.80
2019-05-23T06:19:14.929Z,16.90
2019-05-23T06:21:45.929Z,16.90
2019-05-23T06:24:16.324Z,17.00
2019-05-23T06:26:46.188Z,17.20
2019-05-23T06:29:15.614Z,17.30
2019-05-23T06:31:45.716Z,17.50
2019-05-23T06:34:15.260Z,17.60
2019-05-23T06:36:46.556Z,17.90
2019-05-23T06:39:16.692Z,18.10
2019-05-23T06:41:46.315Z,18.40
2019-05-23T06:44:17.289Z,18.70
2019-05-23T06:46:47.468Z,18.90
2019-05-23T06:49:16.897Z,19.10
2019-05-23T06:51:48.141Z,19.20
2019-05-23T06:54:17.709Z,19.50
2019-05-23T06:56:49.166Z,19.80
2019-05-23T06:59:19.128Z,20.10
2019-05-23T07:01:48.579Z,20.50
2019-05-23T07:04:19.267Z,20.90
2019-05-23T07:06:49.081Z,21.40
2019-05-23T07:09:20.170Z,21.90
2019-05-23T07:11:51.940Z,22.40
2019-05-23T07:14:21.394Z,22.80
2019-05-23T07:16:50.853Z,23.20
2019-05-23T07:19:21.384Z,23.60
2019-05-23T07:21:50.750Z,23.90
2019-05-23T07:24:20.514Z,24.10
2019-05-23T07:26:50.091Z,24.40
2019-05-23T07:29:19.824Z,24.70
2019-05-23T07:31:49.526Z,24.90
2019-05-23T07:34:19.869Z,25.20
2019-05-23T07:36:49.823Z,25.40
2019-05-23T07:39:20.734Z,25.70
2019-05-23T07:41:50.366Z,25.80
2019-05-23T07:44:19.801Z,26.00
2019-05-23T07:47:09.698Z,25.70
2019-05-23T07:49:39.639Z,25.20
2019-05-23T07:52:09.046Z,25.10
2019-05-23T07:54:57.495Z,25.20
2019-05-23T07:57:27.550Z,25.20
2019-05-23T07:59:57.068Z,25.40
2019-05-23T08:02:34.418Z,25.40
2019-05-23T08:05:04.495Z,25.30
2019-05-23T08:07:34.273Z,25.00
2019-05-23T08:10:04.328Z,24.80
2019-05-23T08:12:33.717Z,24.60
2019-05-23T08:15:03.634Z,24.30
2019-05-23T08:17:33.495Z,24.10
2019-05-23T08:20:02.948Z,23.90
2019-05-23T08:22:32.985Z,23.60
2019-05-23T08:25:02.512Z,23.50
2019-05-23T08:27:31.900Z,23.20
2019-05-23T08:30:02.337Z,23.10
2019-05-23T08:32:32.784Z,22.90
2019-05-23T08:35:02.638Z,22.70
2019-05-23T08:37:32.433Z,22.60
2019-05-23T08:40:01.959Z,22.60
2019-05-23T08:42:31.571Z,22.50
2019-05-23T08:45:01.910Z,22.40
2019-05-23T08:47:31.708Z,22.40
2019-05-23T08:50:01.511Z,22.30
2019-05-23T08:52:30.965Z,22.30
2019-05-23T08:55:03.708Z,22.20
2019-05-23T08:57:33.117Z,22.10
2019-05-23T09:00:03.130Z,22.00
2019-05-23T09:02:33.711Z,22.00
2019-05-23T09:05:06.251Z,21.90
2019-05-23T09:07:34.426Z,21.90
2019-05-23T09:10:04.836Z,21.80
2019-05-23T09:12:35.965Z,21.80
2019-05-23T09:15:09.550Z,21.80
2019-05-23T09:17:52.514Z,21.70
2019-05-23T09:20:09.808Z,21.70
2019-05-23T09:22:40.234Z,21.70
2019-05-23T09:25:11.090Z,21.70
2019-05-23T09:27:40.481Z,21.70
2019-05-23T09:30:11.881Z,21.70
2019-05-23T09:32:41.718Z,21.70
2019-05-23T09:35:20.989Z,21.70
2019-05-23T09:37:43.253Z,21.70
2019-05-23T09:40:12.776Z,21.70
2019-05-23T09:42:42.574Z,21.70
2019-05-23T09:45:12.147Z,21.70
2019-05-23T09:47:41.553Z,21.70
2019-05-23T09:50:18.841Z,21.70
2019-05-23T09:52:48.558Z,21.80
2019-05-23T09:55:18.480Z,21.80
2019-05-23T09:57:47.919Z,21.80
2019-05-23T10:00:20.037Z,21.80
2019-05-23T10:02:49.507Z,21.80
2019-05-23T10:05:19.106Z,21.80
2019-05-23T10:07:48.483Z,21.80
2019-05-23T10:10:19.172Z,21.90
2019-05-23T10:12:48.572Z,21.80
2019-05-23T10:15:42.897Z,21.80
2019-05-23T10:18:17.986Z,21.80
2019-05-23T10:20:47.809Z,21.80
2019-05-23T10:23:17.340Z,21.80
2019-05-23T10:25:46.938Z,21.80
2019-05-23T10:28:16.451Z,21.80
2019-05-23T10:30:45.820Z,21.80
2019-05-23T10:33:15.458Z,21.80
2019-05-23T10:35:59.177Z,21.70
2019-05-23T10:38:16.332Z,21.70
2019-05-23T10:40:45.821Z,21.80
2019-05-23T10:43:15.457Z,21.80
2019-05-23T10:45:44.895Z,21.80
2019-05-23T10:48:15.509Z,21.70
2019-05-23T10:50:45.572Z,21.70
2019-05-23T10:53:15.978Z,21.70
2019-05-23T10:55:45.566Z,21.60
2019-05-23T10:58:16.227Z,21.60
2019-05-23T11:00:47.041Z,21.60
2019-05-23T11:03:17.258Z,21.50
2019-05-23T11:05:46.978Z,21.50
2019-05-23T11:08:16.639Z,21.50
2019-05-23T11:10:46.833Z,21.50
2019-05-23T11:13:16.327Z,21.50
2019-05-23T11:15:45.709Z,21.40
2019-05-23T11:18:15.252Z,21.40
2019-05-23T11:20:44.805Z,21.40
2019-05-23T11:23:19.524Z,21.40
2019-05-23T11:25:49.098Z,21.30
2019-05-23T11:28:18.552Z,21.30
2019-05-23T11:30:56.237Z,21.30
2019-05-23T11:33:25.930Z,21.30
2019-05-23T11:35:55.563Z,21.20
2019-05-23T11:38:27.951Z,21.20
2019-05-23T11:40:58.569Z,21.20
2019-05-23T11:43:29.051Z,21.20
2019-05-23T11:46:02.114Z,21.20
2019-05-23T11:48:32.148Z,21.20
2019-05-23T11:51:01.859Z,21.20
2019-05-23T11:53:32.084Z,21.20
2019-05-23T11:56:01.534Z,21.20
2019-05-23T11:58:32.660Z,21.20
2019-05-23T12:01:20.978Z,21.20
2019-05-23T12:03:50.982Z,21.20
2019-05-23T12:06:20.863Z,21.20
2019-05-23T12:08:50.321Z,21.20
2019-05-23T12:11:19.929Z,21.20
2019-05-23T12:13:49.333Z,21.20
2019-05-23T12:16:18.920Z,21.20
2019-05-23T12:18:48.590Z,21.20
2019-05-23T12:21:18.510Z,21.20
2019-05-23T12:23:47.876Z,21.10
2019-05-23T12:26:17.361Z,21.20
2019-05-23T12:28:46.811Z,21.20
2019-05-23T12:31:16.338Z,21.20
2019-05-23T12:33:45.764Z,21.20
2019-05-23T12:36:15.856Z,21.20
2019-05-23T12:38:45.216Z,21.20
2019-05-23T12:41:15.943Z,21.20
2019-05-23T12:43:46.436Z,21.10
2019-05-23T12:46:17.683Z,21.10
2019-05-23T12:48:56.215Z,21.10
2019-05-23T12:51:28.161Z,21.10
2019-05-23T12:53:59.407Z,21.10
2019-05-23T12:56:29.665Z,21.00
2019-05-23T12:59:00.480Z,21.00
2019-05-23T13:01:30.629Z,21.00
2019-05-23T13:04:00.170Z,21.00
2019-05-23T13:06:30.122Z,21.00
2019-05-23T13:09:00.860Z,21.00
2019-05-23T13:11:30.398Z,21.00
2019-05-23T13:14:01.691Z,21.00
2019-05-23T13:16:32.930Z,21.00
2019-05-23T13:19:02.511Z,21.00
2019-05-23T13:21:31.915Z,21.00
2019-05-23T13:24:01.380Z,21.00
2019-05-23T13:26:30.748Z,21.10
2019-05-23T13:29:00.474Z,21.10
2019-05-23T13:31:31.494Z,21.10
2019-05-23T13:34:00.916Z,21.10
2019-05-23T13:36:30.244Z,21.10
2019-05-23T13:38:59.937Z,21.10
2019-05-23T13:41:29.479Z,21.10
2019-05-23T13:43:58.829Z,21.10
2019-05-23T13:46:28.602Z,21.10
2019-05-23T13:48:59.604Z,21.10
2019-05-23T13:51:30.694Z,21.10
2019-05-23T13:54:00.577Z,21.10
2019-05-23T13:56:29.917Z,21.10
2019-05-23T13:58:59.359Z,21.10
2019-05-23T14:01:28.799Z,21.10
2019-05-23T14:03:59.029Z,21.20
2019-05-23T14:06:28.454Z,21.20
2019-05-23T14:08:58.125Z,21.20
2019-05-23T14:11:29.130Z,21.20
2019-05-23T14:14:01.561Z,21.20
2019-05-23T14:16:31.369Z,21.20
2019-05-23T14:19:01.039Z,21.20
2019-05-23T14:21:34.708Z,21.20
2019-05-23T14:24:05.270Z,21.20
2019-05-23T14:26:42.813Z,21.20
2019-05-23T14:29:12.207Z,21.20
2019-05-23T14:31:48.514Z,21.20
2019-05-23T14:34:19.296Z,21.20
2019-05-23T14:37:03.783Z,21.20
2019-05-23T14:39:38.257Z,21.20
2019-05-23T14:42:29.289Z,21.20
2019-05-23T14:44:59.161Z,21.20
2019-05-23T14:47:48.951Z,21.20
2019-05-23T14:50:43.847Z,21.20
2019-05-23T14:53:15.139Z,21.20
2019-05-23T14:55:45.043Z,21.20
2019-05-23T14:58:15.090Z,21.20
2019-05-23T15:00:47.230Z,21.20
2019-05-23T15:03:17.633Z,21.20
2019-05-23T15:05:47.161Z,21.20
2019-05-23T15:08:16.682Z,21.20
2019-05-23T15:10:46.139Z,21.20
2019-05-23T15:13:15.605Z,21.20
2019-05-23T15:15:45.061Z,21.20
2019-05-23T15:18:14.667Z,21.20
2019-05-23T15:20:44.000Z,21.30
2019-05-23T15:23:13.382Z,21.30
2019-05-23T15:25:44.717Z,21.30
2019-05-23T15:28:14.283Z,21.30
2019-05-23T15:30:43.696Z,21.30
2019-05-23T15:33:13.451Z,21.30
2019-05-23T15:35:43.263Z,21.30
2019-05-23T15:38:13.905Z,21.30
2019-05-23T15:40:43.439Z,21.30
2019-05-23T15:43:12.924Z,21.30
2019-05-23T15:45:42.729Z,21.30
2019-05-23T15:48:12.322Z,21.30
2019-05-23T15:50:47.497Z,21.30
2019-05-23T15:53:36.610Z,21.10
2019-05-23T15:56:27.378Z,21.20
2019-05-23T15:58:59.079Z,21.20
2019-05-23T16:01:37.905Z,21.10
2019-05-23T16:04:14.267Z,21.20
2019-05-23T16:06:43.848Z,21.10
2019-05-23T16:09:28.693Z,21.10
2019-05-23T16:11:46.108Z,21.10
2019-05-23T16:14:16.281Z,21.20
2019-05-23T16:16:46.385Z,21.10
2019-05-23T16:19:15.790Z,21.10
2019-05-23T16:21:45.619Z,21.10
2019-05-23T16:24:15.013Z,21.00
2019-05-23T16:26:44.556Z,21.10
2019-05-23T16:29:14.612Z,21.00
2019-05-23T16:31:44.464Z,21.00
2019-05-23T16:34:14.044Z,21.00
2019-05-23T16:36:43.752Z,21.00
2019-05-23T16:39:13.302Z,21.00
2019-05-23T16:41:42.802Z,21.00
2019-05-23T16:44:12.515Z,21.00
2019-05-23T16:46:41.870Z,21.00
2019-05-23T16:49:11.529Z,21.00
2019-05-23T16:51:40.965Z,21.00
2019-05-23T16:54:11.599Z,20.90
2019-05-23T16:56:48.499Z,20.90
2019-05-23T16:59:39.726Z,20.90
2019-05-23T17:02:24.094Z,20.90
2019-05-23T17:05:17.134Z,20.90
2019-05-23T17:07:54.840Z,20.80
2019-05-23T17:10:38.749Z,20.80
2019-05-23T17:13:28.517Z,20.70
2019-05-23T17:16:05.472Z,20.70
2019-05-23T17:18:57.714Z,20.60
2019-05-23T17:21:58.637Z,20.60
2019-05-23T17:27:35.679Z,20.50
2019-05-23T17:30:14.311Z,20.50
2019-05-23T17:32:44.060Z,20.40
2019-05-23T17:35:14.085Z,20.40
2019-05-23T17:37:44.727Z,20.40
2019-05-23T17:40:24.305Z,20.30
2019-05-23T17:42:46.507Z,20.30
2019-05-23T17:45:16.032Z,20.20
2019-05-23T17:47:46.558Z,20.20
2019-05-23T17:50:15.932Z,20.20
2019-05-23T17:52:45.403Z,20.10
2019-05-23T17:55:16.056Z,20.10
2019-05-23T17:57:46.302Z,20.00
2019-05-23T18:00:18.890Z,20.00
2019-05-23T18:02:48.246Z,20.00
2019-05-23T18:05:18.187Z,20.00
2019-05-23T18:07:47.916Z,19.90
2019-05-23T18:10:18.819Z,19.90
2019-05-23T18:12:49.672Z,19.90
2019-05-23T18:15:19.059Z,19.90
2019-05-23T18:17:49.496Z,19.90
2019-05-23T18:20:19.211Z,19.90
2019-05-23T18:22:48.716Z,19.80
2019-05-23T18:25:19.523Z,19.80
2019-05-23T18:27:48.961Z,19.80
2019-05-23T18:30:29.853Z,19.70
2019-05-23T18:32:59.289Z,19.70
2019-05-23T18:38:19.585Z,19.70
2019-05-23T18:41:02.274Z,19.70
2019-05-23T18:43:20.808Z,19.70
2019-05-23T18:45:52.272Z,19.70
2019-05-23T18:48:22.069Z,19.60
2019-05-23T18:50:51.468Z,19.60
2019-05-23T18:53:21.925Z,19.60
2019-05-23T18:55:51.327Z,19.60
2019-05-23T18:58:21.473Z,19.50
2019-05-23T19:01:05.750Z,19.50
2019-05-23T19:03:35.864Z,19.50
2019-05-23T19:06:05.803Z,19.50
2019-05-23T19:08:35.861Z,19.50
2019-05-23T19:11:19.584Z,19.50
2019-05-23T19:13:37.355Z,19.40
2019-05-23T19:16:07.920Z,19.40
2019-05-23T19:18:38.037Z,19.40
2019-05-23T19:21:08.342Z,19.40
2019-05-23T19:23:39.926Z,19.40
2019-05-23T19:26:10.147Z,19.40
2019-05-23T19:28:40.460Z,19.40
2019-05-23T19:31:10.097Z,19.40
2019-05-23T19:33:40.475Z,19.40
2019-05-23T19:36:11.846Z,19.40
2019-05-23T19:38:41.815Z,19.30
2019-05-23T19:41:12.380Z,19.30
2019-05-23T19:43:42.487Z,19.30
2019-05-23T19:46:13.020Z,19.30
2019-05-23T19:48:45.007Z,19.30
2019-05-23T19:51:14.594Z,19.30
2019-05-23T19:53:45.779Z,19.30
2019-05-23T19:56:15.440Z,19.20
2019-05-23T19:58:45.458Z,19.20
2019-05-23T20:01:16.075Z,19.20
2019-05-23T20:04:07.239Z,19.20
2019-05-23T20:06:36.715Z,19.20
2019-05-23T20:09:10.462Z,19.20
2019-05-23T20:11:53.293Z,19.10
2019-05-23T20:14:11.656Z,19.10
2019-05-23T20:16:41.153Z,19.10
2019-05-23T20:19:11.138Z,19.10
2019-05-23T20:21:40.713Z,19.10
2019-05-23T20:24:10.528Z,19.10
2019-05-23T20:26:40.156Z,19.00
2019-05-23T20:29:09.601Z,19.00
2019-05-23T20:31:39.181Z,19.00
2019-05-23T20:34:08.990Z,19.00
2019-05-23T20:36:38.453Z,19.00
2019-05-23T20:39:08.047Z,18.90
2019-05-23T20:41:38.844Z,18.90
2019-05-23T20:44:08.673Z,18.90
2019-05-23T20:46:38.500Z,18.90
2019-05-23T20:49:08.203Z,18.90
2019-05-23T20:51:38.080Z,18.80
2019-05-23T20:54:07.439Z,18.80
2019-05-23T20:56:37.261Z,18.80
2019-05-23T20:59:07.072Z,18.80
2019-05-23T21:01:39.582Z,18.70
2019-05-23T21:04:08.990Z,18.70
2019-05-23T21:06:38.444Z,18.70
2019-05-23T21:09:08.808Z,18.70
2019-05-23T21:11:38.321Z,18.70
2019-05-23T21:14:07.928Z,18.70
2019-05-23T21:16:37.271Z,18.60
2019-05-23T21:19:06.718Z,18.60
2019-05-23T21:21:36.221Z,18.60
2019-05-23T21:24:06.818Z,18.60
2019-05-23T21:26:36.273Z,18.60
2019-05-23T21:29:05.603Z,18.60
2019-05-23T21:31:34.930Z,18.60
2019-05-23T21:34:04.441Z,18.60
2019-05-23T21:36:33.802Z,18.60
2019-05-23T21:39:03.284Z,18.60
2019-05-23T21:41:32.656Z,18.60
2019-05-23T21:44:02.038Z,18.60
2019-05-23T21:46:31.641Z,18.60
2019-05-23T21:49:01.033Z,18.50
2019-05-23T21:51:30.495Z,18.50
2019-05-23T21:53:59.852Z,18.40
2019-05-23T21:56:29.278Z,18.40
2019-05-23T21:58:58.729Z,18.30
2019-05-23T22:01:42.974Z,18.30
2019-05-23T22:04:31.441Z,18.20
2019-05-23T22:07:05.805Z,18.20
2019-05-23T22:09:35.402Z,18.20
2019-05-23T22:12:06.050Z,18.20
2019-05-23T22:14:36.419Z,18.20
2019-05-23T22:17:05.807Z,18.20
2019-05-23T22:19:35.193Z,18.20
2019-05-23T22:22:04.984Z,18.20
2019-05-23T22:24:34.454Z,18.20
2019-05-23T22:27:05.979Z,18.20
2019-05-23T22:29:35.385Z,18.10
2019-05-23T22:32:05.357Z,18.10
2019-05-23T22:34:59.935Z,18.10
2019-05-23T22:37:30.812Z,18.10
2019-05-23T22:40:00.322Z,18.10
2019-05-23T22:42:30.824Z,18.00
2019-05-23T22:45:00.291Z,18.00
2019-05-23T22:47:29.879Z,18.00
2019-05-23T22:49:59.264Z,18.00
2019-05-23T22:52:28.630Z,18.00
2019-05-23T22:54:58.019Z,18.00
2019-05-23T22:57:27.512Z,18.00
2019-05-23T22:59:56.870Z,18.00
2019-05-23T23:02:26.266Z,18.00
2019-05-23T23:04:56.422Z,18.10
2019-05-23T23:07:25.924Z,18.10
2019-05-23T23:09:55.338Z,18.10
2019-05-23T23:12:24.840Z,18.10
2019-05-23T23:14:54.283Z,18.10
2019-05-23T23:17:23.849Z,18.20
2019-05-23T23:19:53.701Z,18.20
2019-05-23T23:22:23.124Z,18.20
2019-05-23T23:24:52.506Z,18.20
2019-05-23T23:27:21.958Z,18.20
2019-05-23T23:29:51.477Z,18.20
2019-05-23T23:32:21.467Z,18.20
2019-05-23T23:34:51.010Z,18.20
2019-05-23T23:37:20.460Z,18.20
2019-05-23T23:39:49.876Z,18.20
2019-05-23T23:42:19.295Z,18.30
2019-05-23T23:44:47.756Z,18.20
2019-05-23T23:47:34.804Z,18.20
2019-05-23T23:50:21.855Z,18.20
2019-05-23T23:53:09.027Z,18.20
2019-05-23T23:55:56.034Z,18.20
2019-05-23T23:58:24.553Z,18.20
